createdAt,value
2023-04-27T00:05:21.893Z,8.71
2023-04-27T00:15:26.592Z,8.64
2023-04-27T00:25:29.667Z,8.57
2023-04-27T00:35:34.967Z,8.47
2023-04-27T00:45:42.547Z,8.38
2023-04-27T00:55:48.558Z,8.41
2023-04-27T01:05:51.521Z,8.24
2023-04-27T01:15:55.888Z,8.30
2023-04-27T01:26:01.504Z,8.30
2023-04-27T01:36:04.792Z,8.30
2023-04-27T01:46:10.266Z,8.27
2023-04-27T01:56:13.362Z,8.17
2023-04-27T02:06:18.266Z,8.16
2023-04-27T02:16:22.589Z,8.12
2023-04-27T02:26:29.437Z,8.10
2023-04-27T02:36:33.445Z,7.98
2023-04-27T02:46:38.105Z,7.99
2023-04-27T02:56:41.134Z,7.79
2023-04-27T03:06:45.816Z,7.67
2023-04-27T03:16:48.962Z,7.72
2023-04-27T03:26:53.587Z,7.62
2023-04-27T03:36:57.942Z,7.76
2023-04-27T03:47:02.343Z,7.63
2023-04-27T03:57:05.990Z,7.61
2023-04-27T04:07:10.415Z,7.68
2023-04-27T04:17:13.345Z,7.70
2023-04-27T04:27:18.662Z,7.67
2023-04-27T04:37:21.949Z,7.57
2023-04-27T04:47:27.239Z,7.38
2023-04-27T04:57:31.267Z,7.58
2023-04-27T05:07:35.677Z,7.57
2023-04-27T05:17:38.748Z,7.64
2023-04-27T05:27:43.070Z,7.78
2023-04-27T05:37:46.201Z,8.10
2023-04-27T05:47:50.646Z,8.25
2023-04-27T05:58:07.149Z,8.49
2023-04-27T06:08:14.100Z,8.70
2023-04-27T06:18:17.369Z,8.73
2023-04-27T06:28:22.075Z,9.04
2023-04-27T06:38:26.077Z,9.24
2023-04-27T06:48:30.594Z,9.53
2023-04-27T06:58:34.105Z,9.72
2023-04-27T07:08:38.449Z,10.00
2023-04-27T07:18:43.328Z,10.07
2023-04-27T07:28:47.954Z,10.04
2023-04-27T07:38:51.266Z,10.18
2023-04-27T07:48:55.990Z,10.52
2023-04-27T07:58:58.846Z,10.91
2023-04-27T08:09:04.382Z,11.22
2023-04-27T08:19:07.343Z,11.33
2023-04-27T08:29:23.558Z,11.52
2023-04-27T08:39:29.930Z,12.03
2023-04-27T08:49:35.068Z,11.81
2023-04-27T08:59:38.006Z,12.13
2023-04-27T09:09:43.366Z,12.84
2023-04-27T09:19:46.576Z,12.67
2023-04-27T09:29:51.576Z,12.96
2023-04-27T09:39:55.058Z,13.12
2023-04-27T09:50:01.098Z,13.00
2023-04-27T10:00:16.434Z,13.29
2023-04-27T10:10:21.105Z,12.96
2023-04-27T10:20:31.493Z,13.49
2023-04-27T10:30:38.803Z,13.90
2023-04-27T10:40:42.156Z,14.55
2023-04-27T10:50:46.819Z,14.85
2023-04-27T11:00:50.097Z,14.58
2023-04-27T11:10:54.383Z,14.86
2023-04-27T11:21:08.490Z,15.07
2023-04-27T11:31:13.615Z,15.53
2023-04-27T11:41:17.877Z,16.01
2023-04-27T11:51:26.164Z,15.96
2023-04-27T12:01:37.530Z,15.65
2023-04-27T12:11:42.764Z,15.44
2023-04-27T12:21:46.693Z,15.44
2023-04-27T12:31:51.460Z,15.97
2023-04-27T12:41:55.166Z,15.64
2023-04-27T12:52:00.184Z,15.67
2023-04-27T13:02:04.217Z,16.17
2023-04-27T13:12:09.325Z,15.83
2023-04-27T13:22:12.356Z,16.16
2023-04-27T13:32:17.217Z,16.25
2023-04-27T13:42:20.617Z,16.65
2023-04-27T13:52:24.958Z,16.60
2023-04-27T14:02:29.368Z,16.64
2023-04-27T14:12:34.126Z,16.34
2023-04-27T14:22:37.501Z,16.30
2023-04-27T14:32:42.240Z,16.42
2023-04-27T14:42:45.612Z,16.01
2023-04-27T14:52:50.424Z,16.07
2023-04-27T15:02:54.454Z,16.30
2023-04-27T15:12:58.796Z,16.04
2023-04-27T15:23:01.813Z,16.00
2023-04-27T15:33:08.167Z,16.55
2023-04-27T15:43:13.386Z,16.18
2023-04-27T15:53:18.131Z,16.06
2023-04-27T16:03:21.600Z,16.04
2023-04-27T16:13:27.325Z,15.93
2023-04-27T16:23:30.598Z,16.04
2023-04-27T16:33:35.180Z,15.88
2023-04-27T16:43:38.657Z,15.81
2023-04-27T16:53:44.058Z,15.93
2023-04-27T17:03:47.863Z,15.97
2023-04-27T17:13:52.497Z,15.83
2023-04-27T17:23:55.888Z,15.70
2023-04-27T17:34:00.292Z,15.68
2023-04-27T17:44:04.214Z,15.65
2023-04-27T17:54:08.766Z,15.51
2023-04-27T18:04:12.393Z,15.54
2023-04-27T18:14:16.810Z,15.40
2023-04-27T18:24:20.049Z,15.30
2023-04-27T18:34:24.369Z,15.25
2023-04-27T18:44:27.165Z,15.17
2023-04-27T18:54:31.725Z,15.15
2023-04-27T19:04:34.723Z,15.11
2023-04-27T19:14:39.299Z,15.17
2023-04-27T19:24:42.447Z,15.09
2023-04-27T19:34:46.957Z,15.05
2023-04-27T19:44:50.089Z,15.12
2023-04-27T19:54:54.917Z,15.10
2023-04-27T20:04:59.561Z,14.97
2023-04-27T20:15:05.227Z,14.93
2023-04-27T20:25:09.240Z,14.92
2023-04-27T20:35:14.037Z,14.88
2023-04-27T20:45:17.619Z,14.83
2023-04-27T20:55:22.289Z,14.80
2023-04-27T21:05:26.018Z,14.67
2023-04-27T21:15:31.003Z,14.54
2023-04-27T21:25:34.969Z,14.55
2023-04-27T21:35:39.836Z,14.39
2023-04-27T21:45:43.095Z,14.46
2023-04-27T21:55:49.357Z,14.43
2023-04-27T22:05:52.817Z,14.28
2023-04-27T22:15:57.320Z,14.30
2023-04-27T22:26:00.344Z,14.17
2023-04-27T22:36:06.217Z,14.23
2023-04-27T22:46:09.269Z,14.22
2023-04-27T22:56:13.475Z,14.22
2023-04-27T23:06:16.880Z,14.04
2023-04-27T23:16:21.852Z,14.10
2023-04-27T23:26:24.798Z,14.03
2023-04-27T23:36:30.925Z,13.84
2023-04-27T23:46:34.114Z,13.79
2023-04-27T23:56:38.438Z,13.80
